Waco's Hourly Summary for Friday, July 6, 2018
Hour Temp
(f)
RH
(%)
Solar Rad.
(MJ/m2)
Rainfall
(in)
Wind
(mph)
7/6/2018 12:00 AM 0 0 0 0 0
7/6/2018 1:00 AM 83 52 0 0 4.18
7/6/2018 2:00 AM 82 65 0 0 1.94
7/6/2018 3:00 AM 82 66 0 0 1.7
7/6/2018 4:00 AM 81 67 0 0 2.18
7/6/2018 5:00 AM 79 71 0 0 3.9
7/6/2018 6:00 AM 78 74 0 0 2
7/6/2018 7:00 AM 77 76 0.03 0 1.17
7/6/2018 8:00 AM 80 71 0.37 0 2.74
7/6/2018 9:00 AM 81 70 0.64 0 4.76
7/6/2018 10:00 AM 83 64 1.44 0 5.18
7/6/2018 11:00 AM 86 57 1.65 0 3.93
7/6/2018 12:00 PM 88 52 1.47 0 4.3
7/6/2018 1:00 PM 90 46 2.16 0 4.87
7/6/2018 2:00 PM 93 40 2.09 0 4.07
7/6/2018 3:00 PM 92 39 1.46 0 6.52
7/6/2018 4:00 PM 89 44 2.12 0 4.34
7/6/2018 5:00 PM 92 41 1.78 0 6.76
7/6/2018 6:00 PM 89 46 0.4 0 9.02
7/6/2018 7:00 PM 82 57 0.12 0 7.38
7/6/2018 8:00 PM 80 61 0.08 0 6.09
7/6/2018 9:00 PM 79 64 0.03 0 3.88
7/6/2018 10:00 PM 78 65 0 0 3.42
7/6/2018 11:00 PM 78 70 0 0 3.32
Data Summary 80 56 15.84 0.00 4.07